createdAt,value
2023-05-13T00:20:02.733Z,15.60
2023-05-13T00:22:34.175Z,15.70
2023-05-13T00:25:03.957Z,15.60
2023-05-13T00:27:36.548Z,15.50
2023-05-13T00:30:06.998Z,15.50
2023-05-13T00:32:36.214Z,15.50
2023-05-13T00:35:08.351Z,15.50
2023-05-13T00:37:37.858Z,15.40
2023-05-13T00:40:24.369Z,15.40
2023-05-13T00:42:56.291Z,15.20
2023-05-13T00:45:25.213Z,15.30
2023-05-13T00:47:54.704Z,15.40
2023-05-13T00:50:27.441Z,15.40
2023-05-13T00:52:58.679Z,15.50
2023-05-13T00:55:28.215Z,15.50
2023-05-13T00:57:56.894Z,15.50
2023-05-13T01:00:26.277Z,15.50
2023-05-13T01:03:03.948Z,15.50
2023-05-13T01:05:41.208Z,15.50
2023-05-13T01:08:25.311Z,15.40
2023-05-13T01:10:58.853Z,15.40
2023-05-13T01:13:31.816Z,15.50
2023-05-13T01:16:07.078Z,15.50
2023-05-13T01:18:44.728Z,15.50
2023-05-13T01:21:16.438Z,15.40
2023-05-13T01:23:48.840Z,15.30
2023-05-13T01:26:18.511Z,15.30
2023-05-13T01:28:48.996Z,15.30
2023-05-13T01:31:21.934Z,15.30
2023-05-13T01:33:53.226Z,15.30
2023-05-13T01:36:23.441Z,15.40
2023-05-13T01:38:55.043Z,15.30
2023-05-13T01:41:24.070Z,15.20
2023-05-13T01:43:55.684Z,15.20
2023-05-13T01:46:25.748Z,15.30
2023-05-13T01:48:57.049Z,15.40
2023-05-13T01:51:25.770Z,15.40
2023-05-13T01:53:55.176Z,15.40
2023-05-13T01:56:24.660Z,15.40
2023-05-13T01:59:32.984Z,15.50
2023-05-13T02:02:02.998Z,15.50
2023-05-13T02:04:33.163Z,15.40
2023-05-13T02:07:03.672Z,15.40
2023-05-13T02:09:38.591Z,15.20
2023-05-13T02:12:09.688Z,15.30
2023-05-13T02:14:39.715Z,15.30
2023-05-13T02:17:13.497Z,15.30
2023-05-13T02:19:43.620Z,15.30
2023-05-13T02:22:12.750Z,15.30
2023-05-13T02:24:43.663Z,15.20
2023-05-13T02:27:16.937Z,15.20
2023-05-13T02:29:46.836Z,15.10
2023-05-13T02:32:16.246Z,15.20
2023-05-13T02:34:46.489Z,15.20
2023-05-13T02:37:18.908Z,15.20
2023-05-13T02:39:59.317Z,15.30
2023-05-13T02:42:28.800Z,15.30
2023-05-13T02:44:59.500Z,15.20
2023-05-13T02:47:32.761Z,15.30
2023-05-13T02:50:08.847Z,15.30
2023-05-13T02:52:40.023Z,15.40
2023-05-13T02:55:12.416Z,15.20
2023-05-13T02:57:42.233Z,15.10
2023-05-13T03:00:13.173Z,15.00
2023-05-13T03:02:44.465Z,15.10
2023-05-13T03:05:14.065Z,15.20
2023-05-13T03:07:46.517Z,15.10
2023-05-13T03:10:19.923Z,15.20
2023-05-13T03:12:50.050Z,15.20
2023-05-13T03:15:20.137Z,15.20
2023-05-13T03:17:49.760Z,15.20
2023-05-13T03:20:21.164Z,15.20
2023-05-13T03:22:51.342Z,15.10
2023-05-13T03:25:22.871Z,15.10
2023-05-13T03:27:59.505Z,15.10
2023-05-13T03:30:33.715Z,15.20
2023-05-13T03:34:14.373Z,15.20
2023-05-13T03:36:44.582Z,15.20
2023-05-13T03:39:17.496Z,15.00
2023-05-13T03:41:49.698Z,15.10
2023-05-13T03:44:20.786Z,15.20
2023-05-13T03:55:12.091Z,15.00
2023-05-13T03:57:48.577Z,15.10
2023-05-13T04:00:21.138Z,15.10
2023-05-13T04:02:51.840Z,15.20
2023-05-13T04:09:33.693Z,15.20
2023-05-13T04:12:03.933Z,15.20
2023-05-13T04:14:33.502Z,15.20
2023-05-13T04:17:01.571Z,15.20
2023-05-13T04:20:06.392Z,15.30
2023-05-13T04:22:37.106Z,15.30
2023-05-13T04:25:07.745Z,15.20
2023-05-13T04:31:46.491Z,15.00
2023-05-13T04:34:20.219Z,15.00
2023-05-13T04:36:53.156Z,15.00
2023-05-13T04:39:23.837Z,15.00
2023-05-13T04:41:54.346Z,15.00
2023-05-13T04:44:24.226Z,15.00
2023-05-13T04:46:56.958Z,15.00
2023-05-13T04:49:26.791Z,15.00
2023-05-13T04:51:58.124Z,15.00
2023-05-13T04:54:28.226Z,15.10
2023-05-13T04:57:03.431Z,15.20
2023-05-13T04:59:40.595Z,15.20
2023-05-13T05:02:12.124Z,15.30
2023-05-13T05:04:40.756Z,15.30
2023-05-13T05:07:14.486Z,15.30
2023-05-13T05:09:43.225Z,15.30
2023-05-13T05:12:11.787Z,15.20
2023-05-13T05:14:42.173Z,15.20
2023-05-13T05:17:12.245Z,15.20
2023-05-13T05:19:40.628Z,15.20
2023-05-13T05:22:09.848Z,15.20
2023-05-13T05:24:38.117Z,15.40
2023-05-13T05:27:06.624Z,15.40
2023-05-13T05:29:36.744Z,15.40
2023-05-13T05:32:05.873Z,15.50
2023-05-13T05:34:35.908Z,15.50
2023-05-13T05:37:04.706Z,15.50
2023-05-13T05:39:35.705Z,15.40
2023-05-13T05:42:04.335Z,15.50
2023-05-13T05:44:32.923Z,15.60
2023-05-13T05:47:01.545Z,15.70
2023-05-13T05:49:30.073Z,15.70
2023-05-13T05:52:00.584Z,15.70
2023-05-13T05:54:29.317Z,15.70
2023-05-13T05:56:57.774Z,15.70
2023-05-13T05:59:26.484Z,15.60
2023-05-13T06:01:55.167Z,15.70
2023-05-13T06:04:25.195Z,15.70
2023-05-13T06:06:53.864Z,15.70
2023-05-13T06:09:24.875Z,15.80
2023-05-13T06:11:53.458Z,15.70
2023-05-13T06:14:21.788Z,15.70
2023-05-13T06:16:50.396Z,15.70
2023-05-13T06:19:18.977Z,15.80
2023-05-13T06:21:47.587Z,15.90
2023-05-13T06:24:16.042Z,15.90
2023-05-13T06:26:46.314Z,16.00
2023-05-13T06:29:15.765Z,16.10
2023-05-13T06:31:44.160Z,16.10
2023-05-13T06:34:16.965Z,16.20
2023-05-13T06:36:46.135Z,16.20
2023-05-13T06:39:15.456Z,16.20
2023-05-13T06:41:59.142Z,16.10
2023-05-13T06:44:45.910Z,16.30
2023-05-13T06:47:16.522Z,16.30
2023-05-13T06:49:45.059Z,16.40
2023-05-13T06:52:13.355Z,16.40
2023-05-13T06:54:41.889Z,16.50
2023-05-13T06:57:12.578Z,16.50
2023-05-13T06:59:41.143Z,16.60
2023-05-13T07:02:10.370Z,16.60
2023-05-13T07:04:38.885Z,16.60
2023-05-13T07:07:07.312Z,16.70
2023-05-13T07:09:35.925Z,16.80
2023-05-13T07:12:04.468Z,16.80
2023-05-13T07:14:34.525Z,16.80
2023-05-13T07:17:04.100Z,16.90
2023-05-13T07:19:32.689Z,16.90
2023-05-13T07:22:01.044Z,16.90
2023-05-13T07:24:29.620Z,17.00
2023-05-13T07:26:57.863Z,17.00
2023-05-13T07:29:27.617Z,17.00
2023-05-13T07:31:57.739Z,17.00
2023-05-13T07:34:26.232Z,17.00
2023-05-13T07:36:54.697Z,17.10
2023-05-13T07:39:23.151Z,17.10
2023-05-13T07:41:51.561Z,17.20
2023-05-13T07:44:20.208Z,17.30
2023-05-13T07:46:49.855Z,17.30
2023-05-13T07:49:20.573Z,17.40
2023-05-13T07:51:49.179Z,17.50
2023-05-13T07:54:17.736Z,17.60
2023-05-13T07:56:48.361Z,17.60
2023-05-13T07:59:17.039Z,17.70
2023-05-13T08:01:45.338Z,17.80
2023-05-13T08:04:13.989Z,17.90
2023-05-13T08:06:43.857Z,17.90
2023-05-13T08:09:12.939Z,17.90
2023-05-13T08:11:41.215Z,17.90
2023-05-13T08:14:09.625Z,18.00
2023-05-13T08:16:37.951Z,18.00
2023-05-13T08:19:06.433Z,18.10
2023-05-13T08:21:34.688Z,18.20
2023-05-13T08:24:04.842Z,18.30
2023-05-13T08:26:33.438Z,18.40
2023-05-13T08:29:01.811Z,18.50
2023-05-13T08:31:30.213Z,18.70
2023-05-13T08:33:58.078Z,18.80
2023-05-13T08:36:26.758Z,18.90
2023-05-13T08:38:54.500Z,19.00
2023-05-13T08:41:24.008Z,19.00
2023-05-13T08:43:54.529Z,19.10
2023-05-13T08:46:27.744Z,19.30
2023-05-13T08:48:56.637Z,19.40
2023-05-13T08:51:24.809Z,19.60
2023-05-13T08:53:53.939Z,19.60
2023-05-13T08:56:25.900Z,19.70
2023-05-13T08:58:53.864Z,19.90
2023-05-13T09:01:22.919Z,19.90
2023-05-13T09:03:57.086Z,19.90
2023-05-13T09:06:25.052Z,20.00
2023-05-13T09:08:53.539Z,20.10
2023-05-13T09:11:23.520Z,20.10
2023-05-13T09:13:58.896Z,20.20
2023-05-13T09:16:29.130Z,20.40
2023-05-13T09:18:59.390Z,20.40
2023-05-13T09:21:29.978Z,20.50
2023-05-13T09:24:08.834Z,20.50
2023-05-13T09:26:42.287Z,20.50
2023-05-13T09:29:22.382Z,20.50
2023-05-13T09:31:52.539Z,20.70
2023-05-13T09:34:26.845Z,20.70
2023-05-13T09:37:00.776Z,20.90
2023-05-13T09:39:29.333Z,21.00
2023-05-13T09:42:02.105Z,21.00
2023-05-13T09:44:31.967Z,21.10
2023-05-13T09:47:02.753Z,21.10
2023-05-13T09:49:32.364Z,21.20
2023-05-13T09:52:00.320Z,21.30
2023-05-13T09:54:35.675Z,21.20
2023-05-13T09:57:05.987Z,21.10
2023-05-13T09:59:34.223Z,21.10
2023-05-13T10:02:04.778Z,21.10
2023-05-13T10:04:32.972Z,21.30
2023-05-13T10:07:04.359Z,21.60
2023-05-13T10:09:36.821Z,21.80
2023-05-13T10:12:09.139Z,21.90
2023-05-13T10:14:38.393Z,22.00
2023-05-13T10:17:07.235Z,22.20
2023-05-13T10:19:35.812Z,22.10
2023-05-13T10:22:03.986Z,21.90
2023-05-13T10:24:33.229Z,22.20
2023-05-13T10:27:02.618Z,22.30
2023-05-13T10:29:32.433Z,22.50
2023-05-13T10:32:00.965Z,22.40
2023-05-13T10:34:31.602Z,22.40
2023-05-13T10:37:12.355Z,22.10
2023-05-13T10:40:03.146Z,21.90
2023-05-13T10:42:53.588Z,21.90
2023-05-13T10:45:27.744Z,22.10
2023-05-13T10:47:56.911Z,22.10
2023-05-13T10:50:25.662Z,22.30
2023-05-13T10:52:58.422Z,22.50
2023-05-13T10:55:28.553Z,22.50
2023-05-13T10:58:09.805Z,22.40
2023-05-13T11:00:40.036Z,22.50
2023-05-13T11:03:29.490Z,22.40
2023-05-13T11:06:14.196Z,22.30
2023-05-13T11:08:43.835Z,22.30
2023-05-13T11:11:31.150Z,22.30
2023-05-13T11:14:16.081Z,22.30
2023-05-13T11:16:54.607Z,22.20
2023-05-13T11:19:26.377Z,22.20
2023-05-13T11:21:56.636Z,22.30
2023-05-13T11:24:25.620Z,22.30
2023-05-13T11:27:05.750Z,22.40
2023-05-13T11:29:39.147Z,22.40
2023-05-13T11:32:08.915Z,22.50
2023-05-13T11:34:37.319Z,22.60
2023-05-13T11:37:09.177Z,22.60
2023-05-13T11:39:40.498Z,22.70
2023-05-13T11:42:10.150Z,22.80
2023-05-13T11:44:45.607Z,22.60
2023-05-13T11:47:16.023Z,22.30
2023-05-13T11:49:44.968Z,22.30
2023-05-13T11:52:15.387Z,22.30
2023-05-13T11:54:45.321Z,22.40
2023-05-13T11:57:23.976Z,22.60
2023-05-13T11:59:54.089Z,22.60
2023-05-13T12:02:25.272Z,22.60
2023-05-13T12:04:53.681Z,22.50
2023-05-13T12:07:23.101Z,22.40
2023-05-13T12:09:51.620Z,22.60
2023-05-13T12:12:20.570Z,22.40
2023-05-13T12:14:50.602Z,22.40
2023-05-13T12:17:19.242Z,22.40
2023-05-13T12:20:09.020Z,22.50
2023-05-13T12:22:38.621Z,22.40
2023-05-13T12:25:38.894Z,22.30
2023-05-13T12:28:17.197Z,22.40
2023-05-13T12:30:53.916Z,22.50
2023-05-13T12:33:22.422Z,22.60
2023-05-13T12:35:53.944Z,22.70
2023-05-13T12:38:24.263Z,22.70
2023-05-13T12:40:53.338Z,22.70
2023-05-13T12:43:21.307Z,22.60
2023-05-13T12:45:56.793Z,22.60
2023-05-13T12:48:26.249Z,22.60
2023-05-13T12:50:56.654Z,22.70
2023-05-13T12:53:24.779Z,22.70
2023-05-13T12:55:52.785Z,22.70
2023-05-13T12:58:20.728Z,22.70
2023-05-13T13:00:48.712Z,22.70
2023-05-13T13:03:17.005Z,22.70
2023-05-13T13:05:45.068Z,22.70
2023-05-13T13:08:14.619Z,22.60
2023-05-13T13:10:42.608Z,22.60
2023-05-13T13:13:10.652Z,22.50
2023-05-13T13:15:39.620Z,22.40
2023-05-13T13:18:07.906Z,22.40
2023-05-13T13:20:36.101Z,22.30
2023-05-13T13:23:04.030Z,22.20
2023-05-13T13:25:33.814Z,22.20
2023-05-13T13:28:01.807Z,22.10
2023-05-13T13:30:29.833Z,22.00
2023-05-13T13:32:57.735Z,21.90
2023-05-13T13:35:25.804Z,21.70
2023-05-13T13:37:54.711Z,21.60
2023-05-13T13:40:23.145Z,21.50
2023-05-13T13:42:52.634Z,21.50
2023-05-13T13:45:24.315Z,21.20
2023-05-13T13:47:52.429Z,21.00
2023-05-13T13:50:20.536Z,20.70
2023-05-13T13:52:48.699Z,20.50
2023-05-13T13:55:16.820Z,20.30
2023-05-13T13:57:44.808Z,20.10
2023-05-13T14:00:15.535Z,20.00
2023-05-13T14:02:44.418Z,19.90
2023-05-13T14:05:13.040Z,19.80
2023-05-13T14:07:41.441Z,19.60
2023-05-13T14:10:10.568Z,19.50
2023-05-13T14:12:38.860Z,19.40
2023-05-13T14:15:08.206Z,19.40
2023-05-13T14:17:37.722Z,19.30
2023-05-13T14:20:06.911Z,19.30
2023-05-13T14:22:36.682Z,19.10
2023-05-13T14:25:05.506Z,18.80
2023-05-13T14:27:36.586Z,18.60
2023-05-13T14:30:05.417Z,18.70
2023-05-13T14:32:33.516Z,18.70
2023-05-13T14:35:03.174Z,18.70
2023-05-13T14:37:31.226Z,18.60
2023-05-13T14:39:59.132Z,18.70
2023-05-13T14:42:27.063Z,18.80
2023-05-13T14:44:55.121Z,18.80
2023-05-13T14:47:22.963Z,18.70
2023-05-13T14:49:51.039Z,18.70
2023-05-13T14:52:20.656Z,18.60
2023-05-13T14:54:48.797Z,18.60
2023-05-13T14:57:16.697Z,18.60
2023-05-13T14:59:44.610Z,18.50
2023-05-13T15:02:14.115Z,18.30
2023-05-13T15:04:41.996Z,18.20
2023-05-13T15:07:10.017Z,18.10
2023-05-13T15:09:39.372Z,17.90
2023-05-13T15:12:08.424Z,17.70
2023-05-13T15:14:36.433Z,17.60
2023-05-13T15:17:06.161Z,17.70
2023-05-13T15:19:34.350Z,17.90
2023-05-13T15:22:02.261Z,18.00
2023-05-13T15:24:30.228Z,18.10
2023-05-13T15:27:01.110Z,18.10
2023-05-13T15:29:29.229Z,18.10
2023-05-13T15:31:57.376Z,18.00
2023-05-13T15:34:25.591Z,18.00
2023-05-13T15:36:53.599Z,17.90
2023-05-13T15:39:21.632Z,17.90
2023-05-13T15:41:49.639Z,17.90
2023-05-13T15:44:19.351Z,17.90
2023-05-13T15:46:49.613Z,17.60
2023-05-13T15:49:18.102Z,17.20
2023-05-13T15:51:45.941Z,17.00
2023-05-13T15:54:14.471Z,16.80
2023-05-13T15:56:42.847Z,16.90
2023-05-13T15:59:10.792Z,16.90
2023-05-13T16:01:42.070Z,16.90
2023-05-13T16:04:10.521Z,17.10
2023-05-13T16:06:38.534Z,17.30
2023-05-13T16:09:06.694Z,17.60
2023-05-13T16:11:34.603Z,17.90
2023-05-13T16:14:02.491Z,18.00
2023-05-13T16:16:30.491Z,17.90
2023-05-13T16:19:00.020Z,17.90
2023-05-13T16:21:28.082Z,17.70
2023-05-13T16:23:56.283Z,17.70
2023-05-13T16:26:24.240Z,17.60
2023-05-13T16:28:52.469Z,17.70
2023-05-13T16:31:21.027Z,17.70
2023-05-13T16:33:49.450Z,17.80
2023-05-13T16:36:19.581Z,17.70
2023-05-13T16:38:48.060Z,17.80
2023-05-13T16:41:16.345Z,17.70
2023-05-13T16:43:46.987Z,17.70
2023-05-13T16:46:17.390Z,17.70
2023-05-13T16:48:46.358Z,17.70
2023-05-13T16:51:14.807Z,17.80
2023-05-13T16:53:44.860Z,17.80
2023-05-13T16:56:13.295Z,17.80
2023-05-13T16:58:41.790Z,17.80
2023-05-13T17:01:10.272Z,17.70
2023-05-13T17:03:38.782Z,17.70
2023-05-13T17:06:08.021Z,17.60
2023-05-13T17:08:36.461Z,17.50
2023-05-13T17:11:06.719Z,17.50
2023-05-13T17:13:35.129Z,17.50
2023-05-13T17:16:03.556Z,17.40
2023-05-13T17:18:32.010Z,17.50
2023-05-13T17:21:04.205Z,17.50
2023-05-13T17:23:32.742Z,17.50
2023-05-13T17:26:01.073Z,17.40
2023-05-13T17:28:31.074Z,17.40
2023-05-13T17:30:59.621Z,17.40
2023-05-13T17:33:27.996Z,17.40
2023-05-13T17:35:56.427Z,17.40
2023-05-13T17:38:25.172Z,17.40
2023-05-13T17:40:53.955Z,17.40
2023-05-13T17:43:22.294Z,17.50
2023-05-13T17:45:52.296Z,17.40
2023-05-13T17:48:20.673Z,17.40
2023-05-13T17:50:49.313Z,17.50
2023-05-13T17:53:17.673Z,17.40
2023-05-13T17:55:47.995Z,17.40
2023-05-13T17:58:16.596Z,17.40
2023-05-13T18:00:45.040Z,17.40
2023-05-13T18:03:15.061Z,17.30
2023-05-13T18:05:43.549Z,17.30
2023-05-13T18:08:11.850Z,17.20
2023-05-13T18:10:40.362Z,17.10
2023-05-13T18:13:08.690Z,17.00
2023-05-13T18:15:37.117Z,17.00
2023-05-13T18:18:06.086Z,17.00
2023-05-13T18:20:36.134Z,17.00
2023-05-13T18:23:04.592Z,17.00
2023-05-13T18:25:34.754Z,17.00
2023-05-13T18:28:06.501Z,17.00
2023-05-13T18:30:34.872Z,17.10
2023-05-13T18:33:03.402Z,17.00
2023-05-13T18:35:31.810Z,16.80
2023-05-13T18:38:01.734Z,16.70
2023-05-13T18:40:30.013Z,16.60
2023-05-13T18:42:58.465Z,16.60
2023-05-13T18:45:26.858Z,16.60
2023-05-13T18:47:55.407Z,16.70
2023-05-13T18:50:25.481Z,16.60
2023-05-13T18:52:53.976Z,16.70
2023-05-13T18:55:23.927Z,16.60
2023-05-13T18:57:52.471Z,16.70
2023-05-13T19:00:21.161Z,16.80
2023-05-13T19:02:49.994Z,16.90
2023-05-13T19:05:20.437Z,17.00
2023-05-13T19:07:49.425Z,17.00
2023-05-13T19:10:17.744Z,17.00
2023-05-13T19:12:47.706Z,16.90
2023-05-13T19:15:16.243Z,16.90
2023-05-13T19:17:44.806Z,16.90
2023-05-13T19:20:13.442Z,16.90
2023-05-13T19:22:42.038Z,16.90
2023-05-13T19:25:11.353Z,17.00
2023-05-13T19:27:40.370Z,16.90
2023-05-13T19:30:12.015Z,17.00
2023-05-13T19:32:40.615Z,17.00
2023-05-13T19:35:09.796Z,17.00
2023-05-13T19:37:38.431Z,16.80
2023-05-13T19:40:07.965Z,16.70
2023-05-13T19:42:36.638Z,16.80
2023-05-13T19:45:09.580Z,16.90
2023-05-13T19:47:40.071Z,17.00
2023-05-13T19:50:09.157Z,17.00
2023-05-13T19:52:37.616Z,17.00
2023-05-13T19:55:07.169Z,17.00
2023-05-13T19:57:35.826Z,16.90
2023-05-13T20:00:06.160Z,16.70
2023-05-13T20:02:36.879Z,16.70
2023-05-13T20:05:11.518Z,16.90
2023-05-13T20:07:40.287Z,16.90
2023-05-13T20:10:10.285Z,16.90
2023-05-13T20:12:38.799Z,16.90
2023-05-13T20:15:07.949Z,16.80
2023-05-13T20:17:37.260Z,16.80
2023-05-13T20:20:08.661Z,16.80
2023-05-13T20:22:37.227Z,16.90
2023-05-13T20:25:06.271Z,16.80
2023-05-13T20:27:35.402Z,16.90
2023-05-13T20:30:04.857Z,16.80
2023-05-13T20:32:33.140Z,16.80
2023-05-13T20:35:01.985Z,16.80
2023-05-13T20:37:31.767Z,16.70
2023-05-13T20:40:00.036Z,16.50
2023-05-13T20:42:28.157Z,16.50
2023-05-13T20:44:56.586Z,16.40
2023-05-13T20:47:24.790Z,16.50
2023-05-13T20:49:53.112Z,16.60
2023-05-13T20:52:22.099Z,16.50
2023-05-13T20:54:52.052Z,16.40
2023-05-13T20:57:20.410Z,16.50
2023-05-13T20:59:50.828Z,16.60
2023-05-13T21:02:19.384Z,16.60
2023-05-13T21:04:47.619Z,16.60
2023-05-13T21:07:16.000Z,16.50
2023-05-13T21:09:44.105Z,16.40
2023-05-13T21:12:13.862Z,16.30
2023-05-13T21:14:42.243Z,16.30
2023-05-13T21:17:10.939Z,16.40
2023-05-13T21:19:39.270Z,16.50
2023-05-13T21:22:07.473Z,16.50
2023-05-13T21:24:35.918Z,16.30
2023-05-13T21:27:04.269Z,16.40
2023-05-13T21:29:34.138Z,16.40
2023-05-13T21:32:02.460Z,16.40
2023-05-13T21:34:30.692Z,16.40
2023-05-13T21:36:58.940Z,16.40
2023-05-13T21:39:27.119Z,16.50
2023-05-13T21:41:55.464Z,16.50
2023-05-13T21:44:25.168Z,16.60
2023-05-13T21:46:55.897Z,16.60
2023-05-13T21:49:24.332Z,16.60
2023-05-13T21:51:52.393Z,16.60
2023-05-13T21:54:20.844Z,16.50
2023-05-13T21:56:49.037Z,16.50
2023-05-13T21:59:17.355Z,16.60
2023-05-13T22:01:45.768Z,16.60
2023-05-13T22:04:15.644Z,16.60
2023-05-13T22:06:44.214Z,16.60
2023-05-13T22:09:12.401Z,16.50
2023-05-13T22:11:40.905Z,16.50
2023-05-13T22:14:09.160Z,16.50
2023-05-13T22:16:37.512Z,16.50
2023-05-13T22:19:05.973Z,16.50
2023-05-13T22:21:36.365Z,16.50
2023-05-13T22:24:06.705Z,16.40
2023-05-13T22:26:36.973Z,16.50
2023-05-13T22:29:05.463Z,16.50
2023-05-13T22:31:33.584Z,16.50
2023-05-13T22:34:02.440Z,16.50
2023-05-13T22:36:31.308Z,16.40
2023-05-13T22:39:01.082Z,16.40
2023-05-13T22:41:29.506Z,16.20
2023-05-13T22:43:57.903Z,16.20
2023-05-13T22:46:26.226Z,16.00
2023-05-13T22:48:54.642Z,16.00
2023-05-13T22:51:22.774Z,16.10
2023-05-13T22:53:51.223Z,16.00
2023-05-13T22:56:22.184Z,16.00
2023-05-13T22:58:50.525Z,16.00
2023-05-13T23:01:18.777Z,16.10
2023-05-13T23:03:47.175Z,16.10
2023-05-13T23:06:15.510Z,16.00
2023-05-13T23:08:43.820Z,15.90
2023-05-13T23:11:12.046Z,15.80
2023-05-13T23:13:41.922Z,15.70
2023-05-13T23:16:10.177Z,15.70
2023-05-13T23:18:38.495Z,15.60
2023-05-13T23:21:09.459Z,15.50
2023-05-13T23:23:37.957Z,15.60
2023-05-13T23:26:06.339Z,15.50
2023-05-13T23:28:34.902Z,15.70
2023-05-13T23:31:04.844Z,15.80
2023-05-13T23:33:33.145Z,16.00
2023-05-13T23:36:01.319Z,15.90
2023-05-13T23:38:29.587Z,16.00
2023-05-13T23:40:57.764Z,16.00
2023-05-13T23:43:26.144Z,16.10
2023-05-13T23:45:54.758Z,16.10
2023-05-13T23:48:26.988Z,16.10
2023-05-13T23:50:55.186Z,16.10
2023-05-13T23:53:23.381Z,15.80
2023-05-13T23:55:51.799Z,15.70
2023-05-13T23:58:19.964Z,15.80
